Time;durP1;ratioP1;P1;durP2;ratioP2;P2;SDS_P1;SDS_P2;PMS_P1;PMS_P2;Temp;Humidity;BMP_temperature;BMP_pressure;BME280_temperature;BME280_humidity;BME280_pressure;Samples;Min_cycle;Max_cycle;Signal;HPM_P1;HPM_P2
2022/10/06 00:02:18;;;;;;;0.55;0.55;;;;;;;12.38;96.84;99288.00;5069109;28;20074;-67
2022/10/06 00:04:44;;;;;;;0.40;0.40;;;;;;;12.34;96.51;99282.06;5069064;28;20286;-66
2022/10/06 00:07:09;;;;;;;0.20;0.20;;;;;;;12.36;96.41;99277.63;5068891;28;20024;-67
2022/10/06 00:09:35;;;;;;;0.40;0.40;;;;;;;12.36;96.54;99295.84;5068797;28;20033;-66
2022/10/06 00:12:00;;;;;;;0.40;0.40;;;;;;;12.38;96.69;99311.44;5068173;28;20465;-67
2022/10/06 00:14:26;;;;;;;0.30;0.30;;;;;;;12.42;96.18;99304.34;5068484;28;20078;-67
2022/10/06 00:16:52;;;;;;;0.40;0.40;;;;;;;12.43;96.18;99312.13;5069031;28;20476;-67
2022/10/06 00:19:17;;;;;;;0.30;0.30;;;;;;;12.42;96.10;99314.75;5068132;28;20141;-67
2022/10/06 00:21:43;;;;;;;0.30;0.30;;;;;;;12.38;95.80;99314.03;5069195;28;20131;-66
2022/10/06 00:24:09;;;;;;;0.40;0.40;;;;;;;12.31;95.33;99316.00;5068343;28;20020;-66
2022/10/06 00:26:34;;;;;;;0.40;0.40;;;;;;;12.13;94.83;99320.03;5067900;28;20534;-68
2022/10/06 00:29:00;;;;;;;0.40;0.40;;;;;;;12.06;94.66;99334.94;5068308;28;20032;-67
2022/10/06 00:31:26;;;;;;;0.40;0.40;;;;;;;11.96;94.66;99342.22;5068320;28;20469;-68
2022/10/06 00:33:51;;;;;;;0.40;0.40;;;;;;;11.94;95.05;99345.75;5067043;28;20021;-67
2022/10/06 00:36:17;;;;;;;0.40;0.40;;;;;;;11.93;95.13;99342.31;5068134;28;20025;-67
2022/10/06 00:38:42;;;;;;;0.40;0.40;;;;;;;11.84;95.14;99330.44;5067717;28;20029;-67
2022/10/06 00:41:12;;;;;;;0.40;0.40;;;;;;;11.89;95.46;99351.09;5067969;28;20032;-67
2022/10/06 00:43:52;;;;;;;0.35;0.35;;;;;;;11.88;95.57;99347.66;5067882;28;20103;-66
2022/10/06 00:46:28;;;;;;;0.40;0.40;;;;;;;11.90;95.43;99364.06;5066937;28;20124;-67
2022/10/06 00:49:17;;;;;;;0.40;0.40;;;;;;;11.85;95.06;99358.13;5068017;28;20052;-67
2022/10/06 00:51:48;;;;;;;0.40;0.40;;;;;;;11.81;95.17;99369.53;5066364;28;20029;-67
2022/10/06 00:54:14;;;;;;;0.32;0.32;;;;;;;11.83;94.61;99372.94;5066507;28;20032;-67
2022/10/06 00:56:40;;;;;;;0.40;0.40;;;;;;;11.81;94.60;99377.34;5066453;28;20492;-68
2022/10/06 00:59:23;;;;;;;0.32;0.32;;;;;;;11.81;94.39;99376.47;5068047;28;20025;-68
2022/10/06 01:02:02;;;;;;;0.40;0.40;;;;;;;11.84;93.94;99384.19;5067757;28;20040;-68
2022/10/06 01:04:32;;;;;;;0.40;0.40;;;;;;;11.87;93.79;99381.50;5067966;28;20032;-67
2022/10/06 01:06:59;;;;;;;0.40;0.40;;;;;;;11.86;93.82;99391.06;5067847;28;20029;-68
2022/10/06 01:09:27;;;;;;;0.40;0.40;;;;;;;11.82;93.29;99388.59;5067356;28;20424;-68
2022/10/06 01:11:56;;;;;;;0.40;0.40;;;;;;;11.83;93.07;99404.16;5067153;28;20025;-68
2022/10/06 01:14:23;;;;;;;0.40;0.40;;;;;;;11.81;92.69;99402.47;5066355;28;20025;-67
2022/10/06 01:16:58;;;;;;;0.40;0.40;;;;;;;11.88;92.37;99404.03;5066960;28;20036;-67
2022/10/06 01:19:34;;;;;;;0.40;0.40;;;;;;;11.85;91.55;99415.34;5066511;28;20100;-67
2022/10/06 01:22:04;;;;;;;0.40;0.40;;;;;;;11.82;92.18;99419.81;5067052;28;20048;-67
2022/10/06 01:24:30;;;;;;;0.38;0.38;;;;;;;11.83;91.78;99416.31;5066981;28;20017;-67
2022/10/06 01:26:56;;;;;;;0.47;0.47;;;;;;;11.77;90.85;99409.53;5066051;28;20047;-68
2022/10/06 01:29:23;;;;;;;5.93;4.43;;;;;;;11.79;90.33;99418.13;5066708;28;20063;-66
2022/10/06 01:31:48;;;;;;;0.40;0.40;;;;;;;11.80;90.45;99429.41;5067087;28;20385;-68
2022/10/06 01:34:13;;;;;;;0.40;0.40;;;;;;;11.74;89.86;99422.63;5066869;28;20020;-68
2022/10/06 01:36:40;;;;;;;0.40;0.40;;;;;;;11.78;89.51;99434.63;5066961;28;20091;-67
2022/10/06 01:39:06;;;;;;;0.40;0.40;;;;;;;11.78;89.07;99445.03;5066643;28;20021;-67
2022/10/06 01:41:32;;;;;;;0.40;0.40;;;;;;;11.80;88.59;99452.81;5066288;28;20031;-67
2022/10/06 01:43:58;;;;;;;0.40;0.40;;;;;;;11.81;88.37;99455.34;5065619;28;20028;-67
2022/10/06 01:46:23;;;;;;;0.40;0.40;;;;;;;11.84;88.68;99455.25;5066747;28;20037;-68
2022/10/06 01:48:49;;;;;;;0.52;0.52;;;;;;;11.82;88.87;99458.81;5065314;28;20025;-67
2022/10/06 01:51:15;;;;;;;0.40;0.40;;;;;;;11.86;88.46;99458.69;5066737;28;20429;-67
2022/10/06 01:53:40;;;;;;;0.30;0.30;;;;;;;11.83;88.19;99456.16;5064795;28;20021;-67
2022/10/06 01:56:06;;;;;;;0.40;0.40;;;;;;;11.88;88.09;99462.09;5066230;28;20039;-67
2022/10/06 01:58:31;;;;;;;0.40;0.40;;;;;;;11.94;87.60;99476.66;5066675;28;20054;-67
2022/10/06 02:00:56;;;;;;;0.40;0.40;;;;;;;11.92;87.64;99477.63;5066303;28;20029;-67
2022/10/06 02:03:22;;;;;;;0.40;0.40;;;;;;;11.88;86.88;99471.63;5066236;28;20025;-67
2022/10/06 02:05:47;;;;;;;0.40;0.40;;;;;;;11.87;86.12;99488.97;5066365;28;20076;-67
2022/10/06 02:08:13;;;;;;;0.40;0.40;;;;;;;11.85;85.87;99492.53;5066094;28;20477;-67
2022/10/06 02:10:38;;;;;;;0.40;0.40;;;;;;;11.89;86.41;99489.81;5066103;28;20084;-67
2022/10/06 02:13:03;;;;;;;0.40;0.40;;;;;;;11.92;86.17;99495.81;5066267;28;20025;-68
2022/10/06 02:15:32;;;;;;;0.40;0.40;;;;;;;11.86;85.86;99495.09;5066286;28;20151;-67
2022/10/06 02:17:57;;;;;;;7.97;5.15;;;;;;;11.89;86.06;99489.81;5064931;28;20025;-67
2022/10/06 02:20:22;;;;;;;0.40;0.40;;;;;;;11.92;86.21;99504.44;5065928;28;20066;-68
2022/10/06 02:22:48;;;;;;;0.40;0.40;;;;;;;11.91;86.25;99502.75;5065853;28;20052;-67
2022/10/06 02:25:13;;;;;;;0.50;0.50;;;;;;;11.90;86.23;99491.50;5065667;28;20024;-68
2022/10/06 02:27:39;;;;;;;9.15;4.78;;;;;;;11.92;86.43;99501.03;5066119;28;20017;-68
2022/10/06 02:30:06;;;;;;;0.40;0.40;;;;;;;11.97;86.00;99499.13;5065757;28;20029;-68
2022/10/06 02:32:37;;;;;;;2.22;2.05;;;;;;;11.96;86.14;99510.44;5065914;28;20025;-68
2022/10/06 02:35:05;;;;;;;0.50;0.50;;;;;;;11.97;85.83;99507.78;5065934;28;20078;-67
2022/10/06 02:37:30;;;;;;;0.40;0.40;;;;;;;11.96;85.58;99513.03;5064495;28;20028;-67
2022/10/06 02:39:56;;;;;;;0.40;0.40;;;;;;;11.98;85.64;99519.06;5065404;28;20027;-67
2022/10/06 02:42:21;;;;;;;0.40;0.40;;;;;;;11.95;85.36;99513.94;5065248;28;20083;-68
2022/10/06 02:44:48;;;;;;;0.40;0.40;;;;;;;11.93;84.33;99526.13;5065354;28;20079;-68
2022/10/06 02:47:14;;;;;;;0.40;0.40;;;;;;;11.89;84.86;99525.34;5065647;28;20051;-68
2022/10/06 02:49:40;;;;;;;0.40;0.40;;;;;;;11.79;84.84;99527.34;5065461;28;20080;-67
2022/10/06 02:52:05;;;;;;;0.40;0.40;;;;;;;11.76;85.17;99540.44;5065124;28;20092;-68
2022/10/06 02:54:32;;;;;;;0.40;0.40;;;;;;;11.72;85.33;99541.44;5065133;28;20040;-67
2022/10/06 02:56:58;;;;;;;0.40;0.40;;;;;;;11.68;85.65;99542.41;5065183;28;20388;-67
2022/10/06 02:59:23;;;;;;;0.40;0.40;;;;;;;11.66;86.06;99545.06;5065464;28;20016;-66
2022/10/06 03:01:48;;;;;;;0.40;0.40;;;;;;;11.66;85.99;99547.66;5065350;28;20036;-67
2022/10/06 03:04:14;;;;;;;0.38;0.38;;;;;;;11.66;86.67;99560.66;5065213;28;20039;-67
2022/10/06 03:06:40;;;;;;;0.40;0.40;;;;;;;11.70;86.50;99556.22;5065215;28;20025;-68
2022/10/06 03:09:07;;;;;;;0.40;0.40;;;;;;;11.75;86.70;99557.81;5065129;28;20029;-68
2022/10/06 03:11:39;;;;;;;0.40;0.40;;;;;;;11.75;86.71;99544.81;5064894;28;20036;-68
2022/10/06 03:14:05;;;;;;;0.50;0.50;;;;;;;11.82;86.71;99545.47;5065210;28;20031;-69
2022/10/06 03:16:34;;;;;;;0.40;0.40;;;;;;;11.82;86.81;99555.03;5065366;28;20536;-68
2022/10/06 03:18:59;;;;;;;0.40;0.40;;;;;;;11.82;86.55;99557.63;5063453;28;20028;-69
2022/10/06 03:21:28;;;;;;;0.50;0.50;;;;;;;11.82;86.78;99562.84;5064995;28;20032;-67
2022/10/06 03:23:56;;;;;;;0.40;0.40;;;;;;;11.83;86.62;99556.72;5065209;28;20021;-67
2022/10/06 03:26:27;;;;;;;0.40;0.40;;;;;;;11.84;86.15;99571.44;5063491;28;20033;-67
2022/10/06 03:28:54;;;;;;;0.40;0.40;;;;;;;11.82;86.05;99573.25;5063295;28;20029;-68
2022/10/06 03:31:20;;;;;;;0.30;0.30;;;;;;;11.83;86.07;99573.19;5065156;28;20033;-68
2022/10/06 03:33:46;;;;;;;0.40;0.40;;;;;;;11.83;86.46;99587.94;5064478;28;20031;-68
2022/10/06 03:36:16;;;;;;;0.40;0.40;;;;;;;11.88;86.45;99592.13;5065345;28;20088;-68
2022/10/06 03:38:42;;;;;;;0.40;0.40;;;;;;;11.89;86.40;99566.97;5064838;28;20029;-69
2022/10/06 03:41:10;;;;;;;0.38;0.38;;;;;;;11.87;86.21;99576.53;5064825;28;20025;-69
2022/10/06 03:43:37;;;;;;;0.40;0.40;;;;;;;11.85;85.85;99565.34;5064941;28;20025;-69
2022/10/06 03:46:03;;;;;;;0.85;0.85;;;;;;;11.89;85.79;99559.16;5064058;28;20027;-68
2022/10/06 03:48:34;;;;;;;0.50;0.50;;;;;;;11.88;85.34;99565.28;5065679;28;20032;-68
2022/10/06 03:51:06;;;;;;;0.30;0.30;;;;;;;11.89;85.54;99562.63;5064953;28;20116;-69
2022/10/06 03:53:32;;;;;;;0.50;0.50;;;;;;;11.87;84.91;99561.81;5064839;28;20473;-67
2022/10/06 03:56:07;;;;;;;0.40;0.40;;;;;;;11.84;84.71;99548.03;5064577;28;20053;-66
2022/10/06 03:58:36;;;;;;;0.40;0.40;;;;;;;11.89;84.56;99561.75;5064728;28;20044;-68
2022/10/06 04:01:03;;;;;;;0.40;0.40;;;;;;;11.87;84.37;99553.13;5064783;28;20021;-66
2022/10/06 04:03:28;;;;;;;0.40;0.40;;;;;;;11.81;85.01;99533.38;5064982;28;20021;-66
2022/10/06 04:05:55;;;;;;;0.40;0.40;;;;;;;11.78;84.71;99556.84;5064629;28;20025;-67
2022/10/06 04:08:22;;;;;;;0.40;0.40;;;;;;;11.71;84.91;99568.34;5063198;28;20029;-68
2022/10/06 04:10:48;;;;;;;0.75;0.75;;;;;;;11.82;85.16;99579.28;5064549;28;20056;-67
2022/10/06 04:13:18;;;;;;;0.50;0.50;;;;;;;11.76;84.21;99580.31;5062400;28;20041;-69
2022/10/06 04:15:45;;;;;;;0.40;0.40;;;;;;;11.57;82.95;99569.53;5065075;28;20650;-68
2022/10/06 04:18:11;;;;;;;0.40;0.40;;;;;;;11.32;82.95;99580.56;5066655;28;20485;-68
2022/10/06 04:20:36;;;;;;;0.40;0.40;;;;;;;11.22;83.34;99563.47;5068446;28;20094;-67
2022/10/06 04:23:02;;;;;;;0.40;0.40;;;;;;;11.13;83.97;99568.00;5067784;28;20092;-68
2022/10/06 04:25:27;;;;;;;0.40;0.40;;;;;;;11.02;84.09;99565.66;5066331;28;20560;-67
2022/10/06 04:27:53;;;;;;;0.40;0.40;;;;;;;10.80;84.88;99577.47;5068150;28;20024;-69
2022/10/06 04:30:18;;;;;;;0.40;0.40;;;;;;;10.58;85.86;99583.97;5067719;28;20024;-68
2022/10/06 04:32:44;;;;;;;0.40;0.40;;;;;;;10.36;86.75;99576.63;5067691;28;20071;-69
2022/10/06 04:35:10;;;;;;;0.40;0.40;;;;;;;10.25;88.70;99581.19;5068014;28;20021;-70
2022/10/06 04:37:36;;;;;;;0.40;0.40;;;;;;;10.23;90.88;99590.72;5067575;28;20028;-69
2022/10/06 04:40:02;;;;;;;0.40;0.40;;;;;;;10.22;91.96;99589.91;5067507;28;20036;-68
2022/10/06 04:42:28;;;;;;;0.40;0.40;;;;;;;10.26;93.57;99595.84;5068067;28;20040;-70
2022/10/06 04:44:56;;;;;;;0.40;0.40;;;;;;;10.28;94.55;99587.16;5066812;28;20032;-69
2022/10/06 04:47:22;;;;;;;0.40;0.40;;;;;;;10.21;95.32;99590.75;5067605;28;20017;-69
2022/10/06 04:49:47;;;;;;;0.40;0.40;;;;;;;10.27;96.33;99597.56;5066473;28;20040;-70
2022/10/06 04:52:12;;;;;;;0.40;0.40;;;;;;;10.26;96.86;99604.50;5067822;28;20017;-70
2022/10/06 04:54:38;;;;;;;0.38;0.38;;;;;;;10.28;97.13;99610.53;5067573;28;20111;-69
2022/10/06 04:57:03;;;;;;;0.40;0.40;;;;;;;10.32;97.65;99600.91;5067785;28;20060;-69
2022/10/06 05:02:12;;;;;;;0.77;0.77;;;;;;;10.28;98.36;99600.13;5067517;28;20538;-70
2022/10/06 05:04:38;;;;;;;0.43;0.43;;;;;;;10.38;98.56;99605.13;5066380;28;20088;-70
2022/10/06 05:07:06;;;;;;;0.45;0.45;;;;;;;10.38;98.72;99611.16;5067599;28;20484;-70
2022/10/06 05:09:31;;;;;;;0.43;0.43;;;;;;;10.35;98.69;99619.00;5067398;28;20033;-69
2022/10/06 05:11:57;;;;;;;0.40;0.40;;;;;;;10.41;98.43;99611.09;5067298;28;20535;-69
2022/10/06 05:14:22;;;;;;;0.40;0.40;;;;;;;10.30;98.02;99636.44;5067259;28;20041;-66
2022/10/06 05:16:48;;;;;;;0.40;0.40;;;;;;;10.22;97.21;99649.56;5067554;28;20050;-66
2022/10/06 05:19:13;;;;;;;0.40;0.40;;;;;;;10.09;96.28;99654.13;5067210;28;20025;-66
2022/10/06 05:21:39;;;;;;;1.05;1.05;;;;;;;10.08;95.96;99654.97;5067243;28;20045;-65
2022/10/06 05:24:04;;;;;;;0.40;0.40;;;;;;;10.07;96.05;99663.66;5067479;28;20025;-65
2022/10/06 05:26:32;;;;;;;0.50;0.50;;;;;;;9.98;95.78;99671.59;5065500;28;20032;-64
2022/10/06 05:28:57;;;;;;;0.40;0.40;;;;;;;9.88;95.67;99674.38;5066333;28;20114;-65
2022/10/06 05:31:29;;;;;;;0.40;0.40;;;;;;;9.78;95.63;99680.56;5065926;28;20420;-66
2022/10/06 05:33:55;;;;;;;0.53;0.53;;;;;;;9.78;95.71;99686.63;5067146;28;20021;-66
2022/10/06 05:36:23;;;;;;;1.50;1.40;;;;;;;9.77;95.71;99691.81;5067008;28;20414;-65
2022/10/06 05:38:48;;;;;;;0.40;0.40;;;;;;;9.66;95.69;99697.19;5066793;28;20552;-66
2022/10/06 05:41:19;;;;;;;0.50;0.50;;;;;;;9.58;95.59;99705.09;5066866;28;20028;-66
2022/10/06 05:43:45;;;;;;;0.40;0.40;;;;;;;9.63;95.98;99700.66;5066949;28;20021;-65
2022/10/06 05:46:16;;;;;;;0.40;0.40;;;;;;;9.61;95.95;99715.41;5066931;28;20273;-65
2022/10/06 05:48:44;;;;;;;0.40;0.40;;;;;;;9.60;96.19;99712.84;5066328;28;20029;-65
2022/10/06 05:51:09;;;;;;;0.50;0.50;;;;;;;9.62;96.13;99722.28;5066050;28;20036;-65
2022/10/06 05:53:35;;;;;;;0.40;0.40;;;;;;;9.72;96.18;99730.78;5066563;28;20029;-66
2022/10/06 05:56:06;;;;;;;0.40;0.40;;;;;;;9.73;96.32;99719.53;5065245;28;20051;-64
2022/10/06 05:58:32;;;;;;;0.40;0.40;;;;;;;9.81;96.41;99740.13;5065648;28;20077;-64
2022/10/06 06:01:18;;;;;;;0.40;0.40;;;;;;;9.90;96.51;99746.94;5065817;28;20060;-65
2022/10/06 06:03:54;;;;;;;0.40;0.40;;;;;;;9.97;96.66;99755.47;5065681;28;20052;-65
2022/10/06 06:06:27;;;;;;;0.40;0.40;;;;;;;9.99;96.41;99764.94;5065402;28;20021;-64
2022/10/06 06:09:19;;;;;;;0.40;0.40;;;;;;;9.98;96.83;99759.75;5065297;28;20100;-63
2022/10/06 06:11:46;;;;;;;;;;;;;;;10.15;96.55;99769.84;5065698;28;20061;-63
2022/10/06 06:14:14;;;;;;;0.65;0.65;;;;;;;10.20;96.38;99786.19;5065226;28;19984;-64
2022/10/06 06:16:41;;;;;;;0.50;0.50;;;;;;;10.23;96.41;99793.06;5065262;28;20033;-64
2022/10/06 06:19:08;;;;;;;0.50;0.50;;;;;;;10.31;96.44;99808.50;5063744;28;20028;-64
2022/10/06 06:21:34;;;;;;;0.40;0.40;;;;;;;10.31;96.52;99804.19;5065218;28;20096;-64
2022/10/06 06:23:59;;;;;;;0.40;0.40;;;;;;;10.39;96.04;99824.78;5065415;28;20088;-64
2022/10/06 06:26:27;;;;;;;1.85;1.75;;;;;;;10.45;96.38;99829.88;5065151;28;20029;-64
2022/10/06 06:28:55;;;;;;;0.50;0.50;;;;;;;10.53;96.29;99840.16;5065470;28;20350;-64
2022/10/06 06:31:28;;;;;;;0.50;0.50;;;;;;;10.84;97.46;99837.03;5065216;28;20057;-65
2022/10/06 06:33:55;;;;;;;0.40;0.40;;;;;;;11.06;95.27;99849.59;5065037;28;20025;-65
2022/10/06 06:36:23;;;;;;;0.40;0.40;;;;;;;11.11;94.38;99850.38;5063953;28;20022;-65
2022/10/06 06:38:50;;;;;;;0.40;0.40;;;;;;;11.50;95.26;99857.34;5064635;28;20024;-67
2022/10/06 06:41:26;;;;;;;0.40;0.40;;;;;;;11.84;92.64;99857.50;5064865;28;20025;-69
2022/10/06 06:43:51;;;;;;;0.40;0.40;;;;;;;12.05;91.21;99853.56;5064904;28;20032;-73
2022/10/06 06:46:18;;;;;;;0.40;0.40;;;;;;;12.06;89.03;99864.84;5064767;28;20033;-72
2022/10/06 06:48:46;;;;;;;0.40;0.40;;;;;;;12.11;88.32;99879.47;5064783;28;20033;-70
2022/10/06 06:51:12;;;;;;;0.40;0.40;;;;;;;12.27;89.55;99879.97;5064462;28;20107;-69
2022/10/06 06:53:38;;;;;;;0.38;0.38;;;;;;;12.56;87.48;99882.75;5064504;28;20129;-69
2022/10/06 06:56:07;;;;;;;0.30;0.30;;;;;;;12.87;86.34;99892.41;5064754;28;20071;-68
2022/10/06 06:58:33;;;;;;;0.30;0.30;;;;;;;13.29;85.07;99908.63;5063277;28;20025;-69
2022/10/06 07:01:04;;;;;;;0.40;0.40;;;;;;;13.46;80.97;99907.31;5064445;28;20020;-69
2022/10/06 07:03:30;;;;;;;0.50;0.50;;;;;;;13.36;81.16;99917.16;5064620;28;20021;-69
2022/10/06 07:06:08;;;;;;;0.40;0.40;;;;;;;13.32;81.37;99932.00;5064468;28;20109;-70
2022/10/06 07:08:41;;;;;;;0.40;0.40;;;;;;;13.16;79.17;99935.94;5064328;28;20051;-69
2022/10/06 07:11:14;;;;;;;0.40;0.40;;;;;;;13.01;79.96;99927.63;5064236;28;20028;-68
2022/10/06 07:13:39;;;;;;;0.40;0.40;;;;;;;12.94;78.83;99944.34;5062806;28;20064;-67
2022/10/06 07:27:04;;;;;;;0.30;0.30;;;;;;;13.26;77.49;99981.69;5064281;28;20075;-68
2022/10/06 07:29:29;;;;;;;0.40;0.40;;;;;;;13.06;76.95;99988.31;5064212;28;20021;-68
2022/10/06 07:31:55;;;;;;;0.40;0.40;;;;;;;12.96;77.31;99995.50;5064341;28;20029;-67
2022/10/06 07:34:21;;;;;;;0.40;0.40;;;;;;;12.87;77.41;99986.19;5063999;28;20362;-68
2022/10/06 07:36:47;;;;;;;0.40;0.40;;;;;;;12.78;78.18;99994.19;5064077;28;20025;-67
2022/10/06 07:39:13;;;;;;;0.30;0.30;;;;;;;12.86;78.97;100017.47;5063921;28;20100;-67
2022/10/06 07:41:38;;;;;;;0.38;0.38;;;;;;;13.29;78.31;100012.91;5063747;28;20396;-67
2022/10/06 07:44:04;;;;;;;0.40;0.40;;;;;;;13.47;75.75;100023.75;5063928;28;20021;-67
2022/10/06 07:46:30;;;;;;;0.40;0.40;;;;;;;13.58;77.11;100050.44;5062810;28;20052;-68
2022/10/06 07:48:55;;;;;;;0.40;0.40;;;;;;;13.65;76.73;100038.09;5064252;28;20444;-68
2022/10/06 07:51:20;;;;;;;0.40;0.40;;;;;;;13.75;76.15;100060.41;5066088;28;20040;-68
2022/10/06 07:53:49;;;;;;;0.40;0.40;;;;;;;13.85;77.26;100055.78;5068121;28;20032;-67
2022/10/06 07:56:15;;;;;;;1.52;1.42;;;;;;;14.08;75.72;100051.69;5067989;28;20037;-67
2022/10/06 07:58:43;;;;;;;0.40;0.40;;;;;;;14.35;75.03;100062.22;5068025;28;20071;-67
2022/10/06 08:01:10;;;;;;;0.30;0.30;;;;;;;14.66;74.62;100080.47;5067763;28;20052;-66
2022/10/06 08:03:36;;;;;;;0.30;0.30;;;;;;;14.79;74.30;100073.13;5066447;28;20093;-68
2022/10/06 08:06:02;;;;;;;0.40;0.40;;;;;;;14.77;72.93;100088.84;5067887;28;20021;-66
2022/10/06 08:08:36;;;;;;;0.30;0.30;;;;;;;15.35;74.56;100093.09;5067832;28;20477;-67
2022/10/06 08:11:03;;;;;;;0.30;0.30;;;;;;;15.79;73.49;100088.16;5067381;28;20048;-69
2022/10/06 08:13:31;;;;;;;0.30;0.30;;;;;;;15.59;71.02;100098.41;5067672;28;20021;-67
2022/10/06 08:16:05;;;;;;;0.40;0.40;;;;;;;15.16;71.04;100120.78;5066662;28;20017;-68
2022/10/06 08:18:31;;;;;;;0.30;0.30;;;;;;;14.82;72.24;100128.78;5067530;28;20020;-68
2022/10/06 08:20:57;;;;;;;0.40;0.40;;;;;;;14.46;72.23;100116.75;5067323;28;20111;-68
2022/10/06 08:23:23;;;;;;;1.20;1.20;;;;;;;14.27;73.55;100132.09;5067388;28;20041;-67
2022/10/06 08:25:52;;;;;;;0.30;0.30;;;;;;;14.11;74.27;100123.81;5067667;28;20162;-68
2022/10/06 08:28:18;;;;;;;0.40;0.40;;;;;;;13.88;73.79;100140.97;5067625;28;20029;-67
2022/10/06 08:30:43;;;;;;;0.60;0.60;;;;;;;13.85;74.89;100139.28;5067242;28;20033;-68
2022/10/06 08:33:09;;;;;;;0.30;0.30;;;;;;;13.94;76.13;100140.81;5067413;28;20024;-68
2022/10/06 08:35:34;;;;;;;0.40;0.40;;;;;;;14.12;74.69;100156.88;5067500;28;20025;-68
2022/10/06 08:38:00;;;;;;;0.40;0.40;;;;;;;14.17;73.24;100151.53;5067412;28;20035;-67
2022/10/06 08:40:27;;;;;;;0.30;0.30;;;;;;;14.61;73.86;100156.38;5067124;28;20025;-67
2022/10/06 08:42:59;;;;;;;1.15;1.15;;;;;;;14.76;73.13;100147.22;5067144;28;20044;-67
2022/10/06 08:45:34;;;;;;;0.75;0.73;;;;;;;14.57;72.32;100145.16;5067259;28;20365;-67
2022/10/06 08:48:25;;;;;;;0.30;0.30;;;;;;;14.35;73.70;100139.69;5067181;28;20036;-68
2022/10/06 08:51:14;;;;;;;0.40;0.40;;;;;;;14.18;73.59;100167.16;5067078;28;20056;-67
2022/10/06 08:53:53;;;;;;;0.30;0.30;;;;;;;14.06;74.65;100142.22;5067291;28;20028;-67
2022/10/06 08:56:23;;;;;;;0.30;0.30;;;;;;;14.06;73.21;100149.19;5065987;28;20032;-69
2022/10/06 08:58:53;;;;;;;0.40;0.40;;;;;;;13.97;73.21;100156.38;5067313;28;20021;-68
2022/10/06 09:01:22;;;;;;;0.40;0.40;;;;;;;13.71;73.25;100163.13;5067261;28;20025;-67
2022/10/06 09:03:50;;;;;;;0.40;0.40;;;;;;;13.52;74.66;100165.34;5065666;28;20050;-69
2022/10/06 09:06:34;;;;;;;0.40;0.40;;;;;;;13.39;74.65;100168.22;5066713;28;20036;-67
2022/10/06 09:09:13;;;;;;;1.25;1.02;;;;;;;13.39;74.75;100173.44;5065482;28;20159;-67
2022/10/06 09:11:57;;;;;;;0.30;0.30;;;;;;;13.48;74.80;100182.78;5066523;28;20029;-68
2022/10/06 09:14:57;;;;;;;0.40;0.40;;;;;;;13.63;74.42;100173.75;5066501;28;20028;-68
2022/10/06 09:17:38;;;;;;;0.38;0.38;;;;;;;13.94;74.48;100163.44;5007749;28;20217;-67
2022/10/06 09:20:19;;;;;;;0.50;0.50;;;;;;;13.86;73.05;100174.06;5023820;28;20116;-68
2022/10/06 09:22:47;;;;;;;0.40;0.40;;;;;;;13.81;73.17;100189.00;5023845;28;20095;-67
2022/10/06 09:25:20;;;;;;;4.13;3.13;;;;;;;13.90;73.63;100201.78;5024064;28;20026;-68
2022/10/06 09:27:51;;;;;;;0.40;0.40;;;;;;;13.95;72.73;100206.91;5023677;28;20038;-67
2022/10/06 09:30:17;;;;;;;4.68;4.32;;;;;;;13.84;72.55;100215.00;5023738;28;20517;-68
2022/10/06 09:32:52;;;;;;;1.15;1.05;;;;;;;13.79;72.40;100224.69;5023991;28;20592;-67
2022/10/06 09:35:20;;;;;;;0.40;0.40;;;;;;;13.84;72.36;100210.66;5024049;28;20074;-68
2022/10/06 09:38:02;;;;;;;0.40;0.40;;;;;;;14.02;71.52;100228.47;5024011;28;20437;-68
2022/10/06 09:40:37;;;;;;;0.50;0.50;;;;;;;14.75;72.43;100244.81;5023552;28;20076;-67
2022/10/06 09:43:19;;;;;;;0.30;0.30;;;;;;;15.08;68.80;100238.69;5023644;28;20040;-68
2022/10/06 09:45:44;;;;;;;0.50;0.50;;;;;;;14.87;68.35;100246.25;5023851;28;20025;-68
2022/10/06 09:48:17;;;;;;;0.30;0.30;;;;;;;14.70;68.67;100244.06;5023711;28;20034;-67
2022/10/06 09:50:43;;;;;;;0.73;0.73;;;;;;;15.11;68.35;100251.66;5023548;28;20192;-67
2022/10/06 09:53:15;;;;;;;1.98;1.05;;;;;;;15.56;66.88;100260.72;5018643;28;20037;-67
2022/10/06 09:55:50;;;;;;;1.45;1.35;;;;;;;15.80;66.14;100271.31;5065547;28;20078;-67
2022/10/06 09:58:20;;;;;;;0.30;0.30;;;;;;;16.95;63.04;100266.53;5064431;28;20021;-68
2022/10/06 10:00:53;;;;;;;1.30;1.27;;;;;;;17.95;59.18;100274.97;5065672;28;20105;-68
2022/10/06 10:03:20;;;;;;;0.30;0.30;;;;;;;19.01;56.78;100278.28;5064476;28;20028;-71
2022/10/06 10:05:50;;;;;;;0.30;0.30;;;;;;;19.76;55.83;100287.13;5065818;28;20024;-69
2022/10/06 10:08:23;;;;;;;1.40;1.30;;;;;;;19.84;53.59;100287.59;5065641;28;20021;-68
2022/10/06 10:12:23;;;;;;;0.40;0.40;;;;;;;19.02;54.70;100287.91;5065188;28;20017;-69
2022/10/06 10:13:57;;;;;;;0.65;0.65;;;;;;;19.08;55.82;100298.16;5064629;28;20033;-68
2022/10/06 10:16:29;;;;;;;0.30;0.30;;;;;;;19.62;54.65;100298.31;5065452;28;20040;-68
2022/10/06 10:18:55;;;;;;;0.30;0.30;;;;;;;19.09;53.25;100296.38;5065546;28;20025;-68
2022/10/06 10:21:28;;;;;;;0.65;0.65;;;;;;;18.93;54.83;100302.31;5065101;28;20056;-68
2022/10/06 10:23:56;;;;;;;0.30;0.30;;;;;;;18.77;54.42;100314.47;5064362;28;20104;-68
2022/10/06 10:26:27;;;;;;;0.90;0.90;;;;;;;19.18;55.13;100313.53;5064117;28;20025;-68
2022/10/06 10:29:30;;;;;;;3.95;2.67;;;;;;;19.83;54.13;100317.50;5063067;28;20032;-68
2022/10/06 10:32:01;;;;;;;3.20;1.55;;;;;;;20.09;52.62;100325.09;5064328;28;20036;-69
2022/10/06 10:34:38;;;;;;;0.22;0.22;;;;;;;19.72;52.85;100320.66;5064402;28;20025;-69
2022/10/06 10:37:11;;;;;;;0.60;0.60;;;;;;;19.80;53.70;100330.81;5064410;28;20373;-69
2022/10/06 10:39:41;;;;;;;0.30;0.30;;;;;;;20.12;53.38;100338.97;5064266;28;20021;-69
2022/10/06 10:42:36;;;;;;;0.30;0.30;;;;;;;19.15;52.06;100340.00;5063855;28;20504;-70
2022/10/06 10:45:08;;;;;;;0.50;0.50;;;;;;;17.96;55.33;100348.44;5064233;28;20350;-68
2022/10/06 10:47:37;;;;;;;0.40;0.40;;;;;;;17.12;57.47;100340.28;5063980;28;20029;-68
2022/10/06 10:50:09;;;;;;;7.22;3.03;;;;;;;16.29;59.14;100354.47;5063837;28;20025;-69
2022/10/06 10:52:40;;;;;;;0.38;0.38;;;;;;;15.68;61.76;100347.63;5063995;28;20021;-67
2022/10/06 10:55:30;;;;;;;0.40;0.40;;;;;;;15.49;64.35;100361.25;5063940;28;20080;-68
2022/10/06 10:58:10;;;;;;;1.02;1.02;;;;;;;16.81;63.71;100352.69;5063849;28;20029;-67
2022/10/06 11:00:42;;;;;;;0.30;0.30;;;;;;;17.71;60.07;100345.94;5063699;28;20017;-68
2022/10/06 11:03:08;;;;;;;0.30;0.30;;;;;;;17.68;59.33;100359.19;5063886;28;20024;-68
2022/10/06 11:06:17;;;;;;;1.05;1.05;;;;;;;17.16;59.13;100366.34;5062607;28;20116;-68
2022/10/06 11:09:08;;;;;;;0.30;0.30;;;;;;;16.74;59.02;100367.81;5063997;28;20032;-68
2022/10/06 11:11:45;;;;;;;0.30;0.30;;;;;;;16.38;59.63;100365.50;5062254;28;20017;-68
2022/10/06 11:14:47;;;;;;;0.43;0.43;;;;;;;15.89;59.59;100367.03;5063629;28;20017;-68
2022/10/06 11:17:43;;;;;;;0.40;0.40;;;;;;;15.46;61.49;100377.06;5063672;28;20100;-68
2022/10/06 11:20:31;;;;;;;0.30;0.30;;;;;;;14.97;63.99;100390.59;5063497;28;20024;-67
2022/10/06 11:23:34;;;;;;;1.90;1.80;;;;;;;14.33;67.86;100390.44;5024875;28;1124694;-65
2022/10/06 11:26:34;;;;;;;0.40;0.40;;;;;;;13.86;70.65;100393.28;5063448;28;20032;-66
2022/10/06 11:29:25;;;;;;;0.30;0.30;;;;;;;13.69;72.37;100394.47;5064425;28;20025;-68
2022/10/06 11:32:04;;;;;;;0.30;0.30;;;;;;;13.57;74.31;100400.84;5064367;28;20108;-68
2022/10/06 11:34:30;;;;;;;15.70;1.40;;;;;;;13.70;75.10;100392.75;5064297;28;20104;-69
2022/10/06 11:37:04;;;;;;;0.35;0.35;;;;;;;13.79;74.55;100395.16;5062947;28;20048;-68
2022/10/06 11:39:29;;;;;;;0.30;0.30;;;;;;;13.93;74.46;100405.28;5064282;28;20048;-69
2022/10/06 11:42:41;;;;;;;0.63;0.63;;;;;;;14.01;74.13;100410.31;5064085;28;20031;-68
2022/10/06 11:45:21;;;;;;;0.40;0.40;;;;;;;14.05;73.08;100417.19;5030236;28;20064;-68
2022/10/06 11:48:11;;;;;;;0.30;0.30;;;;;;;14.15;72.52;100412.63;5064401;28;20024;-67
2022/10/06 11:50:41;;;;;;;0.80;0.80;;;;;;;14.26;72.59;100422.81;5064563;28;20031;-67
2022/10/06 11:53:23;;;;;;;0.40;0.40;;;;;;;14.27;71.99;100405.38;5064935;28;20125;-69
2022/10/06 11:56:09;;;;;;;;;;;;;;;14.44;71.60;100420.66;5064711;28;20048;-68
2022/10/06 11:58:49;;;;;;;0.70;0.70;;;;;;;14.44;70.48;100429.34;5064149;28;19904;-68
2022/10/06 12:01:44;;;;;;;0.50;0.50;;;;;;;14.47;69.18;100429.25;5064084;28;20088;-68